Terminal Aerodrome Forecast
Issued by NWS North Platte, NE

Home | Current Version | Previous Version | Text Only | Print | Product List | Glossary On
Versions: 1 2 3 4 5 6 7 8 9 10 11 12 13 14 15 16 17 18 19
000
FTUS43 KLBF 311100
TAFLBF
TAF
KLBF 311125Z 3112/0112 07006KT P6SM OVC012
      TEMPO 3112/3114 P6SM OVC009
     FM311400 08006KT P6SM OVC016
     FM311800 15012G20KT P6SM SCT020
     FM010000 14006KT P6SM SCT250=

USA.gov is the U.S. government's official web portal to all federal, state and local government web resources and services.